createdAt,value
2019-05-15T00:01:53.036Z,60.00
2019-05-15T00:04:20.592Z,61.41
2019-05-15T00:06:48.609Z,61.74
2019-05-15T00:09:16.116Z,61.57
2019-05-15T00:11:43.272Z,60.42
2019-05-15T00:14:10.419Z,60.64
2019-05-15T00:16:38.606Z,61.68
2019-05-15T00:19:08.497Z,61.17
2019-05-15T00:21:35.393Z,62.23
2019-05-15T00:24:02.769Z,62.42
2019-05-15T00:26:30.165Z,63.71
2019-05-15T00:29:09.526Z,64.91
2019-05-15T00:31:28.982Z,64.44
2019-05-15T00:33:55.651Z,64.96
2019-05-15T00:36:22.895Z,62.00
2019-05-15T00:38:50.143Z,63.11
2019-05-15T00:41:18.520Z,60.44
2019-05-15T00:43:45.928Z,62.98
2019-05-15T00:46:13.082Z,60.33
2019-05-15T00:48:40.524Z,60.59
2019-05-15T00:51:08.452Z,62.22
2019-05-15T00:53:36.283Z,66.16
2019-05-15T00:56:04.146Z,63.41
2019-05-15T00:58:31.309Z,62.55
2019-05-15T01:00:59.155Z,63.50
2019-05-15T01:03:27.853Z,63.82
2019-05-15T01:05:55.273Z,61.64
2019-05-15T01:08:22.781Z,65.45
2019-05-15T01:10:50.183Z,63.28
2019-05-15T01:13:18.978Z,64.47
2019-05-15T01:15:48.771Z,66.36
2019-05-15T01:18:15.853Z,65.47
2019-05-15T01:20:43.443Z,63.12
2019-05-15T01:23:10.727Z,67.08
2019-05-15T01:25:39.042Z,65.69
2019-05-15T01:28:09.098Z,66.85
2019-05-15T01:30:36.142Z,66.51
2019-05-15T01:33:03.632Z,67.37
2019-05-15T01:35:30.875Z,67.96
2019-05-15T01:37:58.591Z,65.34
2019-05-15T01:40:26.183Z,67.54
2019-05-15T01:42:53.350Z,66.35
2019-05-15T01:45:20.804Z,67.57
2019-05-15T01:47:48.115Z,68.20
2019-05-15T01:50:15.630Z,65.90
2019-05-15T01:52:42.879Z,66.86
2019-05-15T01:55:11.237Z,67.21
2019-05-15T01:57:38.714Z,65.52
2019-05-15T02:00:08.691Z,68.45
2019-05-15T02:02:38.819Z,67.79
2019-05-15T02:05:08.435Z,69.17
2019-05-15T02:07:38.755Z,68.74
2019-05-15T02:10:09.144Z,66.81
2019-05-15T02:12:38.480Z,67.10
2019-05-15T02:15:08.351Z,67.98
2019-05-15T02:17:35.010Z,66.85
2019-05-15T02:20:02.903Z,67.49
2019-05-15T02:22:30.379Z,66.90
2019-05-15T02:24:59.182Z,68.53
2019-05-15T02:27:28.764Z,67.05
2019-05-15T02:30:13.045Z,67.22
2019-05-15T02:32:24.877Z,62.72
2019-05-15T02:34:52.263Z,66.57
2019-05-15T02:37:19.634Z,66.92
2019-05-15T02:39:49.326Z,69.00
2019-05-15T02:42:19.031Z,70.16
2019-05-15T02:44:45.245Z,67.17
2019-05-15T02:47:12.494Z,65.05
2019-05-15T02:49:39.939Z,68.62
2019-05-15T02:52:09.739Z,68.30
2019-05-15T02:54:36.542Z,68.88
2019-05-15T02:57:03.911Z,67.03
2019-05-15T02:59:31.264Z,68.68
2019-05-15T03:01:59.379Z,67.52
2019-05-15T03:04:29.044Z,69.19
2019-05-15T03:06:56.116Z,66.56
2019-05-15T03:09:23.460Z,65.86
2019-05-15T03:11:50.940Z,65.54
2019-05-15T03:14:21.365Z,68.31
2019-05-15T03:16:49.702Z,67.77
2019-05-15T03:19:19.321Z,68.03
2019-05-15T03:21:49.695Z,70.28
2019-05-15T03:24:19.168Z,72.13
2019-05-15T03:26:45.709Z,72.59
2019-05-15T03:29:12.874Z,70.44
2019-05-15T03:31:58.874Z,72.49
2019-05-15T03:34:20.414Z,71.92
2019-05-15T03:36:44.263Z,72.76
2019-05-15T03:39:09.683Z,72.37
2019-05-15T03:41:39.278Z,69.89
2019-05-15T03:44:09.222Z,72.80
2019-05-15T03:46:35.734Z,70.71
2019-05-15T03:49:03.190Z,68.18
2019-05-15T03:51:30.653Z,69.62
2019-05-15T03:54:00.288Z,70.98
2019-05-15T03:56:29.574Z,70.97
2019-05-15T03:58:59.780Z,70.26
2019-05-15T04:01:34.292Z,72.26
2019-05-15T04:03:59.808Z,71.56
2019-05-15T04:06:29.642Z,71.15
2019-05-15T04:08:58.554Z,72.12
2019-05-15T04:11:25.469Z,72.10
2019-05-15T04:13:52.912Z,70.80
2019-05-15T04:16:20.188Z,71.97
2019-05-15T04:18:49.064Z,71.32
2019-05-15T04:21:19.685Z,71.25
2019-05-15T04:23:50.050Z,70.72
2019-05-15T04:26:19.394Z,71.43
2019-05-15T04:28:49.429Z,71.80
2019-05-15T04:31:19.187Z,70.84
2019-05-15T04:33:48.870Z,70.63
2019-05-15T04:36:14.802Z,70.93
2019-05-15T04:38:42.061Z,70.38
2019-05-15T04:41:09.967Z,70.52
2019-05-15T04:43:43.727Z,69.38
2019-05-15T04:46:09.802Z,69.43
2019-05-15T04:48:35.966Z,69.05
2019-05-15T04:51:03.367Z,68.56
2019-05-15T04:53:33.150Z,68.35
2019-05-15T04:56:00.066Z,68.13
2019-05-15T04:58:29.724Z,68.07
2019-05-15T05:00:59.909Z,67.41
2019-05-15T05:03:29.211Z,66.94
2019-05-15T05:05:58.842Z,66.71
2019-05-15T05:08:25.225Z,66.93
2019-05-15T05:10:52.560Z,65.96
2019-05-15T05:13:20.497Z,65.75
2019-05-15T05:15:50.267Z,64.87
2019-05-15T05:18:19.053Z,64.14
2019-05-15T05:20:48.475Z,63.69
2019-05-15T05:23:18.886Z,63.04
2019-05-15T05:25:45.686Z,62.71
2019-05-15T05:28:13.314Z,62.29
2019-05-15T05:30:41.005Z,62.02
2019-05-15T05:33:08.597Z,60.18
2019-05-15T05:35:36.139Z,59.84
2019-05-15T05:38:03.505Z,59.01
2019-05-15T05:40:30.923Z,57.16
2019-05-15T05:42:59.611Z,55.21
2019-05-15T05:45:28.795Z,53.86
2019-05-15T05:47:58.059Z,52.72
2019-05-15T05:50:38.758Z,51.75
2019-05-15T05:53:08.823Z,50.25
2019-05-15T05:55:38.314Z,50.48
2019-05-15T05:58:08.039Z,50.50
2019-05-15T06:00:48.610Z,48.78
2019-05-15T06:03:15.269Z,48.91
2019-05-15T06:05:42.737Z,49.61
2019-05-15T06:08:10.373Z,48.28
2019-05-15T06:10:38.756Z,48.16
2019-05-15T06:13:08.683Z,46.72
2019-05-15T06:15:37.918Z,47.08
2019-05-15T06:18:08.342Z,46.39
2019-05-15T06:20:41.065Z,47.96
2019-05-15T06:23:08.521Z,48.17
2019-05-15T06:25:36.060Z,48.15
2019-05-15T06:28:03.811Z,47.44
2019-05-15T06:30:31.497Z,46.99
2019-05-15T06:33:08.376Z,46.77
2019-05-15T06:35:31.188Z,45.56
2019-05-15T06:37:59.062Z,46.66
2019-05-15T06:40:28.893Z,47.39
2019-05-15T06:42:55.968Z,46.72
2019-05-15T06:45:24.378Z,46.37
2019-05-15T06:47:51.638Z,47.64
2019-05-15T06:50:38.980Z,47.48
2019-05-15T06:53:10.456Z,45.89
2019-05-15T06:55:38.613Z,46.51
2019-05-15T06:58:05.380Z,45.54
2019-05-15T07:00:32.841Z,45.42
2019-05-15T07:03:00.248Z,45.43
2019-05-15T07:05:29.455Z,45.66
2019-05-15T07:07:58.535Z,46.19
2019-05-15T07:10:28.668Z,46.21
2019-05-15T07:13:02.827Z,48.11
2019-05-15T07:15:30.275Z,46.36
2019-05-15T07:17:58.102Z,45.43
2019-05-15T07:20:28.484Z,43.92
2019-05-15T07:22:58.458Z,44.77
2019-05-15T07:25:25.442Z,42.46
2019-05-15T07:27:53.049Z,41.02
2019-05-15T07:30:21.360Z,41.39
2019-05-15T07:32:48.889Z,39.37
2019-05-15T07:35:19.154Z,41.10
2019-05-15T07:37:47.862Z,38.25
2019-05-15T07:40:19.340Z,37.84
2019-05-15T07:42:49.011Z,38.71
2019-05-15T07:45:19.796Z,39.13
2019-05-15T07:47:48.938Z,39.82
2019-05-15T07:50:21.839Z,38.67
2019-05-15T07:52:49.091Z,39.92
2019-05-15T07:55:18.511Z,39.46
2019-05-15T07:57:45.951Z,40.55
2019-05-15T08:00:14.680Z,40.84
2019-05-15T08:02:42.943Z,38.43
2019-05-15T08:05:11.285Z,39.77
2019-05-15T08:07:39.073Z,38.34
2019-05-15T08:10:08.734Z,37.87
2019-05-15T08:12:39.274Z,38.24
2019-05-15T08:15:10.090Z,38.35
2019-05-15T08:17:56.070Z,38.46
2019-05-15T08:20:10.638Z,36.78
2019-05-15T08:22:38.486Z,37.20
2019-05-15T08:25:11.361Z,37.52
2019-05-15T08:27:38.292Z,37.44
2019-05-15T08:30:08.941Z,37.51
2019-05-15T08:32:38.652Z,36.98
2019-05-15T08:35:08.077Z,38.07
2019-05-15T08:37:36.303Z,38.18
2019-05-15T08:40:08.402Z,36.86
2019-05-15T08:42:35.454Z,37.64
2019-05-15T08:45:03.627Z,38.11
2019-05-15T08:47:31.088Z,38.74
2019-05-15T08:49:58.244Z,37.48
2019-05-15T08:52:25.628Z,38.26
2019-05-15T08:54:54.686Z,37.37
2019-05-15T08:57:22.035Z,37.71
2019-05-15T08:59:49.380Z,36.58
2019-05-15T09:02:18.577Z,36.71
2019-05-15T09:04:45.687Z,36.23
2019-05-15T09:07:12.931Z,36.28
2019-05-15T09:09:40.209Z,35.32
2019-05-15T09:12:08.283Z,35.22
2019-05-15T09:14:37.934Z,34.04
2019-05-15T09:17:05.203Z,34.20
2019-05-15T09:19:32.356Z,33.63
2019-05-15T09:21:59.726Z,34.02
2019-05-15T09:24:28.637Z,33.11
2019-05-15T09:26:56.143Z,33.79
2019-05-15T09:29:23.303Z,33.82
2019-05-15T09:31:50.579Z,33.40
2019-05-15T09:34:18.603Z,33.81
2019-05-15T09:36:48.428Z,34.22
2019-05-15T09:39:15.355Z,33.58
2019-05-15T09:41:42.697Z,33.87
2019-05-15T09:44:10.100Z,33.71
2019-05-15T09:46:38.275Z,34.18
2019-05-15T09:49:08.610Z,33.09
2019-05-15T09:51:35.215Z,32.65
2019-05-15T09:54:02.703Z,32.68
2019-05-15T09:56:29.984Z,32.79
2019-05-15T09:58:58.208Z,33.34
2019-05-15T10:01:28.528Z,32.50
2019-05-15T10:03:56.262Z,31.81
2019-05-15T10:06:23.414Z,31.72
2019-05-15T10:08:50.748Z,31.75
2019-05-15T10:11:19.780Z,31.17
2019-05-15T10:13:47.420Z,30.65
2019-05-15T10:16:14.673Z,31.27
2019-05-15T10:18:41.866Z,28.12
2019-05-15T10:21:09.336Z,27.38
2019-05-15T10:23:40.045Z,27.19
2019-05-15T10:26:13.262Z,24.93
2019-05-15T10:28:35.357Z,24.61
2019-05-15T10:31:03.785Z,23.11
2019-05-15T10:33:31.036Z,21.93
2019-05-15T10:35:59.119Z,21.47
2019-05-15T10:38:28.516Z,19.57
2019-05-15T10:41:08.521Z,19.50
2019-05-15T10:43:25.084Z,18.02
2019-05-15T10:45:54.694Z,18.54
2019-05-15T10:48:21.577Z,18.63
2019-05-15T10:50:48.927Z,18.36
2019-05-15T10:53:18.773Z,18.58
2019-05-15T10:55:46.265Z,18.25
2019-05-15T10:58:17.076Z,16.92
2019-05-15T11:00:42.791Z,16.56
2019-05-15T11:03:10.163Z,16.32
2019-05-15T11:05:44.922Z,16.53
2019-05-15T11:08:08.323Z,16.12
2019-05-15T11:10:38.556Z,16.23
2019-05-15T11:13:05.686Z,16.40
2019-05-15T11:15:32.975Z,15.33
2019-05-15T11:18:00.405Z,16.25
2019-05-15T11:20:27.685Z,16.29
2019-05-15T11:22:55.034Z,15.60
2019-05-15T11:25:22.561Z,15.79
2019-05-15T11:27:49.903Z,15.21
2019-05-15T11:30:19.287Z,15.41
2019-05-15T11:32:48.659Z,16.32
2019-05-15T11:35:18.642Z,15.66
2019-05-15T11:37:47.137Z,15.65
2019-05-15T11:40:15.864Z,15.51
2019-05-15T11:42:43.213Z,16.38
2019-05-15T11:45:12.273Z,16.69
2019-05-15T11:47:40.277Z,16.57
2019-05-15T11:50:09.713Z,16.27
2019-05-15T11:52:40.120Z,16.48
2019-05-15T11:55:08.355Z,16.11
2019-05-15T11:57:43.624Z,16.01
2019-05-15T12:00:15.085Z,15.35
2019-05-15T12:02:38.415Z,16.61
2019-05-15T12:05:09.269Z,16.39
2019-05-15T12:07:38.169Z,14.97
2019-05-15T12:10:09.838Z,15.73
2019-05-15T12:12:38.306Z,15.88
2019-05-15T12:15:05.869Z,16.36
2019-05-15T12:17:34.209Z,15.93
2019-05-15T12:20:06.438Z,15.91
2019-05-15T12:22:31.216Z,17.67
2019-05-15T12:25:00.521Z,16.95
2019-05-15T12:27:28.308Z,16.87
2019-05-15T12:29:56.196Z,17.20
2019-05-15T12:32:35.564Z,15.99
2019-05-15T12:34:59.786Z,17.71
2019-05-15T12:37:25.337Z,16.44
2019-05-15T12:59:46.025Z,16.19
2019-05-15T13:02:13.271Z,18.01
2019-05-15T13:04:40.434Z,17.00
2019-05-15T13:07:13.806Z,17.24
2019-05-15T13:09:38.149Z,17.73
2019-05-15T13:12:05.730Z,18.38
2019-05-15T13:14:33.108Z,17.65
2019-05-15T13:17:00.577Z,18.23
2019-05-15T13:19:28.609Z,18.29
2019-05-15T13:21:57.838Z,19.36
2019-05-15T13:24:24.989Z,18.67
2019-05-15T13:26:52.409Z,19.05
2019-05-15T13:29:19.787Z,19.85
2019-05-15T13:31:47.848Z,18.86
2019-05-15T13:34:15.329Z,19.80
2019-05-15T13:36:42.580Z,20.13
2019-05-15T13:39:09.953Z,20.55
2019-05-15T13:41:38.607Z,20.25
2019-05-15T13:44:06.069Z,20.02
2019-05-15T13:46:33.333Z,21.16
2019-05-15T13:49:00.598Z,20.52
2019-05-15T13:51:29.028Z,21.14
2019-05-15T13:53:56.671Z,20.27
2019-05-15T13:56:24.012Z,21.01
2019-05-15T13:58:51.352Z,20.59
2019-05-15T14:01:19.633Z,20.61
2019-05-15T14:03:48.337Z,21.45
2019-05-15T14:06:16.066Z,21.40
2019-05-15T14:08:43.270Z,21.66
2019-05-15T14:11:10.684Z,21.45
2019-05-15T14:13:39.185Z,21.49
2019-05-15T14:16:06.817Z,21.09
2019-05-15T14:18:34.164Z,22.54
2019-05-15T14:21:01.424Z,21.56
2019-05-15T14:23:29.579Z,21.89
2019-05-15T14:25:58.867Z,21.67
2019-05-15T14:28:28.331Z,22.20
2019-05-15T14:31:00.905Z,20.96
2019-05-15T14:33:29.149Z,21.11
2019-05-15T14:35:57.756Z,21.39
2019-05-15T14:38:25.148Z,21.08
2019-05-15T14:40:52.518Z,21.93
2019-05-15T14:43:19.662Z,20.75
2019-05-15T14:45:48.043Z,20.80
2019-05-15T14:48:15.577Z,20.93
2019-05-15T14:50:42.967Z,20.22
2019-05-15T14:53:10.356Z,21.07
2019-05-15T14:55:43.222Z,20.85
2019-05-15T14:58:08.318Z,19.95
2019-05-15T15:00:36.020Z,20.36
2019-05-15T15:03:03.304Z,19.51
2019-05-15T15:05:30.995Z,19.96
2019-05-15T15:07:58.682Z,20.24
2019-05-15T15:10:28.925Z,20.39
2019-05-15T15:12:55.683Z,20.85
2019-05-15T15:15:24.961Z,21.10
2019-05-15T15:17:52.146Z,21.12
2019-05-15T15:20:19.711Z,22.02
2019-05-15T15:22:48.508Z,22.01
2019-05-15T15:25:16.132Z,22.44
2019-05-15T15:27:48.720Z,22.72
2019-05-15T15:30:18.794Z,22.27
2019-05-15T15:32:45.437Z,22.06
2019-05-15T15:35:13.201Z,22.50
2019-05-15T15:37:40.382Z,22.01
2019-05-15T15:40:09.084Z,21.31
2019-05-15T15:42:39.083Z,21.57
2019-05-15T15:45:09.015Z,22.70
2019-05-15T15:47:36.022Z,21.50
2019-05-15T15:50:06.315Z,21.42
2019-05-15T15:52:38.206Z,22.68
2019-05-15T15:55:05.163Z,21.55
2019-05-15T15:57:32.570Z,21.29
2019-05-15T16:00:00.089Z,21.96
2019-05-15T16:02:28.085Z,21.92
2019-05-15T16:04:55.556Z,21.09
2019-05-15T16:07:23.417Z,21.11
2019-05-15T16:09:51.446Z,22.25
2019-05-15T16:12:18.724Z,21.42
2019-05-15T16:14:48.677Z,22.58
2019-05-15T16:17:21.248Z,21.48
2019-05-15T16:19:49.277Z,22.19
2019-05-15T16:22:21.886Z,21.41
2019-05-15T16:24:49.461Z,22.29
2019-05-15T16:27:18.271Z,21.70
2019-05-15T16:29:45.576Z,21.63
2019-05-15T16:32:13.103Z,21.10
2019-05-15T16:34:41.103Z,21.13
2019-05-15T16:37:08.928Z,21.83
2019-05-15T16:39:38.182Z,21.00
2019-05-15T16:42:05.371Z,21.33
2019-05-15T16:44:32.642Z,21.80
2019-05-15T16:46:59.915Z,21.87
2019-05-15T16:49:28.481Z,22.66
2019-05-15T16:51:58.161Z,22.18
2019-05-15T16:54:25.105Z,22.44
2019-05-15T16:56:52.291Z,22.65
2019-05-15T16:59:19.866Z,22.46
2019-05-15T17:01:48.911Z,22.87
2019-05-15T17:04:18.176Z,23.18
2019-05-15T17:06:45.668Z,23.22
2019-05-15T17:09:21.007Z,23.19
2019-05-15T17:11:42.078Z,23.72
2019-05-15T17:14:09.531Z,23.56
2019-05-15T17:16:38.686Z,23.63
2019-05-15T17:19:08.561Z,23.18
2019-05-15T17:21:35.340Z,23.59
2019-05-15T17:24:03.525Z,23.71
2019-05-15T17:26:30.783Z,24.33
2019-05-15T17:28:58.345Z,24.48
2019-05-15T17:31:25.760Z,24.48
2019-05-15T17:33:53.031Z,24.69
2019-05-15T17:36:20.319Z,24.71
2019-05-15T17:38:48.711Z,25.40
2019-05-15T17:41:16.154Z,25.37
2019-05-15T17:43:43.397Z,25.51
2019-05-15T17:46:10.850Z,25.92
2019-05-15T17:48:38.833Z,25.54
2019-05-15T17:51:08.942Z,25.63
2019-05-15T17:53:38.272Z,25.84
2019-05-15T17:56:05.690Z,26.19
2019-05-15T17:58:32.860Z,26.55
2019-05-15T18:01:01.668Z,26.65
2019-05-15T18:03:29.116Z,26.80
2019-05-15T18:05:58.844Z,26.75
2019-05-15T18:08:28.476Z,26.95
2019-05-15T18:10:55.030Z,27.49
2019-05-15T18:13:22.401Z,27.67
2019-05-15T18:15:49.691Z,27.46
2019-05-15T18:18:18.676Z,28.01
2019-05-15T18:20:48.301Z,28.13
2019-05-15T18:23:18.743Z,28.42
2019-05-15T18:25:49.186Z,29.06
2019-05-15T18:28:18.632Z,29.21
2019-05-15T18:30:47.904Z,29.52
2019-05-15T18:33:18.392Z,29.68
2019-05-15T18:35:45.432Z,29.82
2019-05-15T18:38:13.190Z,30.32
2019-05-15T18:40:44.578Z,30.52
2019-05-15T18:43:11.953Z,31.03
2019-05-15T18:45:39.462Z,31.97
2019-05-15T18:48:06.838Z,31.94
2019-05-15T18:50:34.021Z,31.69
2019-05-15T18:53:01.412Z,32.15
2019-05-15T18:55:28.938Z,32.26
2019-05-15T18:57:58.410Z,32.97
2019-05-15T19:00:25.860Z,33.06
2019-05-15T19:02:54.231Z,33.32
2019-05-15T19:05:21.732Z,33.30
2019-05-15T19:07:51.628Z,33.27
2019-05-15T19:10:20.028Z,33.09
2019-05-15T19:12:48.408Z,33.25
2019-05-15T19:15:17.908Z,33.24
2019-05-15T19:17:47.473Z,33.56
2019-05-15T19:20:15.372Z,34.10
2019-05-15T19:22:42.679Z,34.41
2019-05-15T19:25:12.862Z,34.93
2019-05-15T19:27:40.093Z,35.28
2019-05-15T19:30:09.351Z,34.74
2019-05-15T19:32:38.866Z,34.62
2019-05-15T19:35:08.052Z,34.88
2019-05-15T19:37:38.413Z,35.53
2019-05-15T19:40:08.389Z,35.55
2019-05-15T19:42:38.159Z,34.65
2019-05-15T19:45:08.595Z,35.79
2019-05-15T19:47:38.399Z,35.40
2019-05-15T19:50:11.285Z,35.51
2019-05-15T19:52:39.029Z,35.23
2019-05-15T19:55:08.899Z,35.84
2019-05-15T19:57:38.727Z,36.73
2019-05-15T20:00:08.291Z,37.02
2019-05-15T20:02:37.902Z,36.74
2019-05-15T20:05:09.221Z,36.32
2019-05-15T20:07:38.992Z,37.63
2019-05-15T20:10:07.504Z,36.39
2019-05-15T20:12:35.654Z,37.42
2019-05-15T20:15:04.071Z,36.26
2019-05-15T20:17:31.666Z,37.62
2019-05-15T20:19:58.956Z,36.84
2019-05-15T20:22:28.342Z,37.18
2019-05-15T20:24:55.883Z,37.24
2019-05-15T20:27:25.270Z,37.51
2019-05-15T20:29:52.674Z,37.27
2019-05-15T20:32:19.940Z,37.93
2019-05-15T20:34:48.329Z,38.35
2019-05-15T20:37:18.303Z,38.15
2019-05-15T20:39:45.589Z,38.63
2019-05-15T20:42:13.826Z,37.80
2019-05-15T20:44:41.088Z,38.71
2019-05-15T20:47:09.028Z,38.82
2019-05-15T20:49:37.799Z,38.74
2019-05-15T20:52:05.427Z,39.16
2019-05-15T20:54:32.735Z,38.32
2019-05-15T20:57:00.349Z,39.30
2019-05-15T20:59:27.772Z,39.84
2019-05-15T21:01:55.339Z,39.56
2019-05-15T21:04:24.387Z,39.87
2019-05-15T21:06:51.785Z,40.58
2019-05-15T21:09:19.032Z,40.02
2019-05-15T21:11:48.279Z,39.99
2019-05-15T21:14:15.531Z,39.26
2019-05-15T21:16:43.054Z,41.12
2019-05-15T21:19:10.400Z,40.01
2019-05-15T21:21:38.641Z,40.27
2019-05-15T21:24:10.277Z,40.87
2019-05-15T21:26:38.249Z,40.00
2019-05-15T21:29:07.755Z,40.25
2019-05-15T21:31:34.629Z,39.64
2019-05-15T21:34:08.507Z,39.94
2019-05-15T21:36:36.125Z,40.59
2019-05-15T21:39:04.918Z,41.60
2019-05-15T21:41:32.707Z,40.58
2019-05-15T21:43:59.946Z,41.62
2019-05-15T21:46:27.406Z,41.64
2019-05-15T21:48:54.974Z,40.72
2019-05-15T21:51:22.115Z,42.04
2019-05-15T21:53:49.373Z,42.58
2019-05-15T21:56:18.819Z,42.23
2019-05-15T21:58:48.357Z,41.70
2019-05-15T22:01:16.035Z,42.71
2019-05-15T22:03:43.284Z,41.05
2019-05-15T22:06:11.280Z,41.54
2019-05-15T22:08:38.670Z,43.21
2019-05-15T22:11:06.248Z,43.41
2019-05-15T22:13:33.607Z,43.78
2019-05-15T22:16:01.368Z,43.27
2019-05-15T22:18:30.332Z,44.00
2019-05-15T22:20:58.574Z,43.29
2019-05-15T22:23:27.874Z,43.76
2019-05-15T22:25:55.181Z,45.00
2019-05-15T22:28:23.073Z,44.75
2019-05-15T22:30:50.846Z,45.49
2019-05-15T22:33:21.025Z,45.46
2019-05-15T22:35:49.633Z,44.62
2019-05-15T22:38:18.090Z,45.03
2019-05-15T22:40:45.741Z,44.46
2019-05-15T22:43:13.080Z,44.05
2019-05-15T22:45:42.287Z,44.44
2019-05-15T22:48:10.489Z,43.55
2019-05-15T22:50:42.408Z,43.81
2019-05-15T22:53:12.227Z,44.08
2019-05-15T22:55:40.550Z,44.54
2019-05-15T22:58:09.638Z,46.08
2019-05-15T23:00:39.255Z,45.44
2019-05-15T23:03:08.424Z,45.82
2019-05-15T23:05:39.142Z,45.23
2019-05-15T23:08:06.750Z,45.64
2019-05-15T23:10:37.931Z,46.11
2019-05-15T23:13:05.796Z,44.67
2019-05-15T23:15:33.713Z,45.68
2019-05-15T23:18:00.938Z,46.49
2019-05-15T23:20:31.497Z,46.39
2019-05-15T23:22:59.409Z,45.94
2019-05-15T23:25:28.692Z,45.45
2019-05-15T23:27:58.187Z,44.83
2019-05-15T23:30:25.113Z,45.21
2019-05-15T23:32:52.374Z,46.11
2019-05-15T23:35:19.648Z,45.68
2019-05-15T23:37:48.571Z,46.84
2019-05-15T23:40:17.979Z,45.29
2019-05-15T23:42:45.675Z,46.99
2019-05-15T23:45:13.410Z,45.16
2019-05-15T23:47:40.697Z,46.68
2019-05-15T23:50:08.357Z,47.27
2019-05-15T23:52:35.610Z,46.88
2019-05-15T23:55:05.130Z,47.82
2019-05-15T23:57:32.301Z,47.09
2019-05-15T23:59:59.675Z,46.69
